Time;durP1;ratioP1;P1;durP2;ratioP2;P2;SDS_P1;SDS_P2;PMS_P1;PMS_P2;Temp;Humidity;BMP_temperature;BMP_pressure;BME280_temperature;BME280_humidity;BME280_pressure;Samples;Min_cycle;Max_cycle;Signal;HPM_P1;HPM_P2
2023/08/24 00:02:00;;;;;;;8.93;4.43;;;;;;;23.86;100.00;96157.47;5103829;27;20569;-65
2023/08/24 00:04:26;;;;;;;8.68;4.70;;;;;;;23.83;100.00;96165.97;5106525;27;20044;-66
2023/08/24 00:06:51;;;;;;;6.78;4.45;;;;;;;23.83;100.00;96161.41;5116359;27;20041;-66
2023/08/24 00:09:17;;;;;;;9.95;4.63;;;;;;;23.85;100.00;96158.53;5107417;27;20031;-65
2023/08/24 00:11:42;;;;;;;8.95;4.47;;;;;;;23.87;100.00;96148.38;5117245;27;20022;-65
2023/08/24 00:14:08;;;;;;;10.98;4.55;;;;;;;23.87;100.00;96156.44;5101746;27;20051;-65
2023/08/24 00:16:34;;;;;;;7.15;4.68;;;;;;;23.85;100.00;96153.16;5096612;28;20555;-66
2023/08/24 00:18:59;;;;;;;13.75;4.03;;;;;;;23.85;100.00;96153.16;5111612;27;20027;-65
2023/08/24 00:21:24;;;;;;;12.50;5.55;;;;;;;23.88;100.00;96147.34;5105734;28;20465;-66
2023/08/24 00:23:50;;;;;;;7.60;5.55;;;;;;;23.88;100.00;96150.88;5092554;28;20083;-65
2023/08/24 00:26:16;;;;;;;9.88;4.28;;;;;;;23.93;100.00;96138.63;5113701;27;20019;-65
2023/08/24 00:28:43;;;;;;;8.40;4.93;;;;;;;23.90;100.00;96142.56;5112233;27;20091;-66
2023/08/24 00:31:08;;;;;;;8.23;4.40;;;;;;;23.89;100.00;96141.75;5125624;27;20015;-65
2023/08/24 00:33:34;;;;;;;9.00;4.43;;;;;;;23.89;100.00;96146.28;5122090;27;20465;-66
2023/08/24 00:36:00;;;;;;;9.27;4.70;;;;;;;23.85;100.00;96151.25;5109270;27;20027;-65
2023/08/24 00:38:26;;;;;;;8.73;4.75;;;;;;;23.81;100.00;96162.69;5103972;28;20043;-65
2023/08/24 00:40:53;;;;;;;7.07;4.13;;;;;;;23.84;100.00;96154.19;5114872;27;20507;-66
2023/08/24 00:43:23;;;;;;;9.98;5.25;;;;;;;23.81;100.00;96176.13;5115683;27;20019;-65
2023/08/24 00:45:50;;;;;;;6.80;4.13;;;;;;;23.79;100.00;96162.06;5095226;28;20025;-71
2023/08/24 00:48:16;;;;;;;9.45;4.38;;;;;;;23.75;100.00;96157.09;5101404;27;20023;-71
2023/08/24 00:50:41;;;;;;;8.60;4.43;;;;;;;23.69;100.00;96162.53;5106801;27;20028;-71
2023/08/24 00:53:06;;;;;;;9.50;4.30;;;;;;;23.60;100.00;96162.75;5102392;27;20135;-72
2023/08/24 00:55:33;;;;;;;8.85;4.38;;;;;;;23.57;100.00;96157.00;5115528;27;20095;-72
2023/08/24 00:57:59;;;;;;;9.00;4.38;;;;;;;23.61;100.00;96155.53;5106552;27;20023;-71
2023/08/24 01:00:24;;;;;;;10.65;5.07;;;;;;;23.55;100.00;96167.16;5111268;28;20024;-71
2023/08/24 01:02:50;;;;;;;6.35;4.15;;;;;;;23.52;100.00;96160.31;5112631;27;20471;-71
2023/08/24 01:05:15;;;;;;;8.68;4.55;;;;;;;23.47;100.00;96162.81;5108603;27;20416;-71
2023/08/24 01:07:41;;;;;;;9.80;4.22;;;;;;;23.39;100.00;96171.09;5112077;27;20065;-74
2023/08/24 01:10:09;;;;;;;8.68;4.07;;;;;;;23.32;100.00;96173.81;5118561;27;20023;-76
2023/08/24 01:12:51;;;;;;;8.32;4.32;;;;;;;23.26;100.00;96162.06;5118375;27;20031;-75
2023/08/24 01:15:32;;;;;;;13.10;4.30;;;;;;;23.21;100.00;96159.16;5107903;27;20023;-74
2023/08/24 01:18:04;;;;;;;12.35;4.45;;;;;;;23.18;100.00;96170.31;5115116;27;20464;-74
2023/08/24 01:20:30;;;;;;;6.78;4.10;;;;;;;23.20;100.00;96164.72;5118349;27;20039;-72
2023/08/24 01:23:34;;;;;;;8.77;4.25;;;;;;;23.25;100.00;96146.13;5101295;27;20028;-73
2023/08/24 01:26:16;;;;;;;8.55;4.32;;;;;;;23.22;100.00;96159.97;5108244;27;20053;-73
2023/08/24 01:28:46;;;;;;;12.45;4.55;;;;;;;23.18;100.00;96162.25;5107266;27;20105;-73
2023/08/24 01:31:15;;;;;;;6.57;4.05;;;;;;;23.14;100.00;96158.34;5102901;28;20385;-73
2023/08/24 01:33:41;;;;;;;8.93;4.32;;;;;;;23.06;100.00;96154.00;5110620;27;20043;-73
2023/08/24 01:36:09;;;;;;;9.38;4.30;;;;;;;23.04;100.00;96164.97;5100995;27;20058;-73
2023/08/24 01:38:35;;;;;;;5.05;4.03;;;;;;;22.96;100.00;96161.69;5106400;27;20785;-73
2023/08/24 01:41:23;;;;;;;12.60;4.80;;;;;;;22.90;100.00;96166.03;5100828;28;20457;-73
2023/08/24 01:43:53;;;;;;;6.68;4.30;;;;;;;22.91;100.00;96156.13;5105327;27;20097;-73
2023/08/24 01:46:20;;;;;;;9.38;4.53;;;;;;;22.87;100.00;96161.88;5101791;28;20666;-73
2023/08/24 01:48:46;;;;;;;7.80;4.38;;;;;;;22.87;100.00;96156.50;5105189;27;20044;-73
2023/08/24 01:51:13;;;;;;;7.30;4.13;;;;;;;22.91;100.00;96148.88;5101096;28;20085;-73
2023/08/24 01:53:39;;;;;;;9.18;4.68;;;;;;;22.91;100.00;96154.25;5102185;27;20035;-73
2023/08/24 01:56:12;;;;;;;7.97;4.25;;;;;;;22.89;100.00;96149.09;5108918;27;20397;-73
2023/08/24 01:58:38;;;;;;;8.95;4.68;;;;;;;22.92;100.00;96147.03;5110612;27;20031;-73
2023/08/24 02:01:05;;;;;;;8.60;4.20;;;;;;;22.93;100.00;96140.63;5103305;27;20107;-73
2023/08/24 02:03:31;;;;;;;9.05;4.70;;;;;;;22.88;100.00;96142.09;5103364;27;20030;-73
2023/08/24 02:05:56;;;;;;;10.18;4.80;;;;;;;22.84;100.00;96150.75;5100326;27;20102;-73
2023/08/24 02:08:22;;;;;;;9.23;4.18;;;;;;;22.83;100.00;96141.88;5097070;27;20028;-73
2023/08/24 02:10:47;;;;;;;6.13;4.38;;;;;;;22.82;100.00;96148.28;5112260;27;20020;-73
2023/08/24 02:13:13;;;;;;;8.68;4.13;;;;;;;22.81;100.00;96129.72;5105947;28;20045;-73
2023/08/24 02:15:41;;;;;;;6.68;4.57;;;;;;;22.79;100.00;96126.41;5106109;27;20028;-73
2023/08/24 02:18:07;;;;;;;7.55;4.70;;;;;;;22.77;100.00;96134.66;5109211;28;20035;-73
2023/08/24 02:20:36;;;;;;;7.53;4.25;;;;;;;22.68;100.00;96123.31;5118431;27;20041;-73
2023/08/24 02:23:03;;;;;;;10.15;4.50;;;;;;;22.64;100.00;96131.97;5105408;27;20692;-73
2023/08/24 02:25:28;;;;;;;12.93;4.90;;;;;;;22.60;100.00;96131.59;5112852;27;20019;-73
2023/08/24 02:27:54;;;;;;;12.88;4.85;;;;;;;22.59;100.00;96128.06;5109461;27;20114;-73
2023/08/24 02:30:19;;;;;;;10.75;4.40;;;;;;;22.54;100.00;96132.41;5106492;28;20115;-73
2023/08/24 02:32:44;;;;;;;8.75;4.38;;;;;;;22.53;100.00;96128.91;5107655;27;20023;-73
2023/08/24 02:35:10;;;;;;;8.52;4.47;;;;;;;22.47;100.00;96140.47;5104237;28;20032;-73
2023/08/24 02:37:35;;;;;;;8.23;4.18;;;;;;;22.48;100.00;96125.19;5099461;28;20533;-73
2023/08/24 02:40:01;;;;;;;10.52;5.30;;;;;;;22.49;100.00;96122.31;5103364;28;20388;-73
2023/08/24 02:42:27;;;;;;;6.05;4.35;;;;;;;22.48;100.00;96131.38;5102921;27;20479;-73
2023/08/24 02:44:52;;;;;;;10.75;4.40;;;;;;;22.44;100.00;96127.44;5109327;27;20019;-72
2023/08/24 02:47:17;;;;;;;9.13;4.63;;;;;;;22.39;100.00;96137.94;5109015;28;20114;-72
2023/08/24 02:49:43;;;;;;;12.38;4.70;;;;;;;22.36;100.00;96149.09;5102533;28;20028;-73
2023/08/24 02:52:08;;;;;;;9.00;4.50;;;;;;;22.33;100.00;96144.97;5105629;28;20031;-73
2023/08/24 02:54:34;;;;;;;8.45;4.80;;;;;;;22.38;100.00;96144.34;5104153;28;20016;-73
2023/08/24 02:56:59;;;;;;;6.85;4.50;;;;;;;22.36;100.00;96143.72;5100524;28;20594;-73
2023/08/24 02:59:25;;;;;;;8.30;4.38;;;;;;;22.33;100.00;96153.84;5111082;28;20063;-73
2023/08/24 03:01:51;;;;;;;9.32;4.50;;;;;;;22.33;100.00;96148.47;5108208;27;20029;-73
2023/08/24 03:04:16;;;;;;;11.43;5.03;;;;;;;22.29;100.00;96152.59;5114041;27;20027;-72
2023/08/24 03:06:44;;;;;;;8.10;4.45;;;;;;;22.32;100.00;96146.81;5104679;27;20035;-72
2023/08/24 03:09:09;;;;;;;12.70;4.93;;;;;;;22.30;100.00;96143.53;5106797;27;20027;-73
2023/08/24 03:11:35;;;;;;;11.02;4.53;;;;;;;22.29;100.00;96157.13;5101162;27;20027;-73
2023/08/24 03:14:00;;;;;;;10.65;5.10;;;;;;;22.31;100.00;96145.16;5102557;27;20106;-73
2023/08/24 03:16:26;;;;;;;10.82;4.47;;;;;;;22.30;100.00;96143.53;5098558;27;20460;-72
2023/08/24 03:18:52;;;;;;;11.88;4.53;;;;;;;22.27;100.00;96135.88;5106314;27;20650;-73
2023/08/24 03:21:17;;;;;;;11.60;5.28;;;;;;;22.24;100.00;96138.16;5106417;27;20578;-73
2023/08/24 03:23:43;;;;;;;7.22;4.30;;;;;;;22.17;100.00;96147.03;5106206;27;20042;-73
2023/08/24 03:26:08;;;;;;;6.50;4.75;;;;;;;22.15;100.00;96137.50;5110513;27;20102;-72
2023/08/24 03:28:33;;;;;;;7.88;5.38;;;;;;;22.08;100.00;96142.06;5105235;27;20023;-72
2023/08/24 03:31:00;;;;;;;8.18;4.60;;;;;;;21.96;100.00;96155.22;5108444;27;20070;-72
2023/08/24 03:33:26;;;;;;;7.68;4.40;;;;;;;21.91;100.00;96155.00;5104495;27;20043;-73
2023/08/24 03:35:51;;;;;;;6.97;4.70;;;;;;;21.89;100.00;96152.53;5104807;27;20042;-73
2023/08/24 03:38:17;;;;;;;11.88;5.43;;;;;;;21.91;100.00;96150.47;5106790;27;20096;-72
2023/08/24 03:40:42;;;;;;;9.63;4.72;;;;;;;21.88;100.00;96156.22;5104581;27;20024;-72
2023/08/24 03:43:08;;;;;;;11.32;4.57;;;;;;;21.84;100.00;96160.34;5103065;27;20094;-72
2023/08/24 03:45:33;;;;;;;8.02;5.00;;;;;;;21.82;100.00;96160.53;5106452;27;20114;-72
2023/08/24 03:47:59;;;;;;;9.77;5.32;;;;;;;21.89;100.00;96155.19;5101840;27;20050;-73
2023/08/24 03:50:24;;;;;;;10.32;4.78;;;;;;;21.97;100.00;96146.97;5111274;27;20095;-72
2023/08/24 03:52:50;;;;;;;7.38;4.68;;;;;;;22.00;100.00;96153.78;5109480;27;20470;-72
2023/08/24 03:55:16;;;;;;;13.35;6.15;;;;;;;21.99;100.00;96139.53;5109626;27;20706;-72
2023/08/24 03:57:42;;;;;;;7.32;4.90;;;;;;;21.96;100.00;96153.34;5105992;27;20038;-73
2023/08/24 04:00:11;;;;;;;13.35;4.85;;;;;;;21.94;100.00;96136.66;5106074;27;20078;-72
2023/08/24 04:02:40;;;;;;;10.98;5.10;;;;;;;21.86;100.00;96139.53;5111517;28;20514;-75
2023/08/24 04:05:06;;;;;;;13.40;5.28;;;;;;;21.79;100.00;96141.38;5102411;27;20023;-72
2023/08/24 04:07:33;;;;;;;10.25;4.78;;;;;;;21.67;100.00;96147.31;5108880;27;20023;-72
2023/08/24 04:09:58;;;;;;;11.65;5.00;;;;;;;21.64;100.00;96152.19;5108634;27;20028;-72
2023/08/24 04:12:24;;;;;;;11.82;5.03;;;;;;;21.63;100.00;96151.38;5105710;27;20107;-72
2023/08/24 04:14:49;;;;;;;9.48;5.35;;;;;;;21.67;100.00;96154.53;5112921;27;20440;-72
2023/08/24 04:17:15;;;;;;;9.75;5.00;;;;;;;21.69;100.00;96155.16;5101041;27;20468;-72
2023/08/24 04:19:40;;;;;;;9.68;4.95;;;;;;;21.60;100.00;96152.59;5106731;27;20057;-72
2023/08/24 04:22:06;;;;;;;16.38;5.47;;;;;;;21.55;100.00;96155.06;5114364;27;20031;-72
2023/08/24 04:24:31;;;;;;;12.75;5.80;;;;;;;21.40;100.00;96157.88;5101751;27;20032;-72
2023/08/24 04:26:56;;;;;;;8.30;4.82;;;;;;;21.33;100.00;96162.38;5112992;27;20019;-72
2023/08/24 04:29:22;;;;;;;9.25;4.90;;;;;;;21.32;100.00;96156.19;5108873;27;20070;-72
2023/08/24 04:31:47;;;;;;;8.13;6.50;;;;;;;21.32;100.00;96158.03;5110717;27;20028;-72
2023/08/24 04:34:13;;;;;;;12.50;7.10;;;;;;;21.28;100.00;96156.78;5108085;27;20024;-72
2023/08/24 04:36:38;;;;;;;11.82;6.43;;;;;;;21.26;100.00;96153.50;5105583;27;20023;-71
2023/08/24 04:39:04;;;;;;;8.48;5.63;;;;;;;21.26;100.00;96140.09;5103027;28;20023;-72
2023/08/24 04:41:29;;;;;;;7.82;4.95;;;;;;;21.27;100.00;96141.75;5115609;27;20036;-72
2023/08/24 04:43:54;;;;;;;9.82;5.07;;;;;;;21.30;100.00;96144.03;5119947;27;20030;-74
2023/08/24 04:46:20;;;;;;;10.60;5.80;;;;;;;21.36;100.00;96142.41;5121989;27;20503;-71
2023/08/24 04:48:45;;;;;;;10.57;5.65;;;;;;;21.38;100.00;96143.03;5109837;27;20035;-72
2023/08/24 04:51:11;;;;;;;8.57;4.90;;;;;;;21.39;100.00;96139.34;5113596;27;20035;-72
2023/08/24 04:53:36;;;;;;;8.60;6.13;;;;;;;21.40;100.00;96136.47;5113356;27;20039;-72
2023/08/24 04:56:02;;;;;;;10.63;5.40;;;;;;;21.41;100.00;96132.75;5119273;27;20027;-72
2023/08/24 04:58:27;;;;;;;15.20;5.95;;;;;;;21.44;100.00;96143.06;5113974;27;20051;-72
2023/08/24 05:00:55;;;;;;;13.55;5.38;;;;;;;21.39;100.00;96147.38;5116497;27;20036;-72
2023/08/24 05:03:21;;;;;;;12.13;7.72;;;;;;;21.34;100.00;96145.31;5116471;27;20102;-71
2023/08/24 05:05:47;;;;;;;11.52;5.95;;;;;;;21.36;100.00;96145.09;5112204;27;20052;-72
2023/08/24 05:08:12;;;;;;;10.13;5.47;;;;;;;21.24;100.00;96148.34;5106671;27;20023;-72
2023/08/24 05:10:38;;;;;;;14.32;5.28;;;;;;;21.27;100.00;96139.06;5111666;27;20548;-72
2023/08/24 05:13:04;;;;;;;10.27;5.18;;;;;;;21.30;100.00;96146.72;5117906;27;20583;-72
2023/08/24 05:15:29;;;;;;;11.23;5.13;;;;;;;21.36;100.00;96140.56;5107775;27;20149;-72
2023/08/24 05:17:56;;;;;;;10.80;5.75;;;;;;;21.40;100.00;96135.63;5114315;28;20031;-72
2023/08/24 05:20:28;;;;;;;11.80;6.30;;;;;;;21.41;100.00;96135.44;5115255;27;20027;-74
2023/08/24 05:22:57;;;;;;;13.60;5.30;;;;;;;21.44;100.00;96135.03;5103531;27;20107;-73
2023/08/24 05:25:23;;;;;;;9.93;5.43;;;;;;;21.49;100.00;96139.81;5114579;28;20035;-73
2023/08/24 05:27:49;;;;;;;15.02;5.05;;;;;;;21.52;100.00;96141.22;5116318;27;20039;-73
2023/08/24 05:30:15;;;;;;;11.55;5.57;;;;;;;21.51;100.00;96144.94;5115014;27;20047;-73
2023/08/24 05:32:40;;;;;;;8.05;5.55;;;;;;;21.49;100.00;96144.31;5111543;27;20102;-73
2023/08/24 05:35:07;;;;;;;12.23;5.72;;;;;;;21.47;100.00;96145.34;5112452;27;20027;-73
2023/08/24 05:37:32;;;;;;;11.57;5.55;;;;;;;21.47;100.00;96147.22;5101290;28;20020;-73
2023/08/24 05:39:59;;;;;;;10.55;5.28;;;;;;;21.46;100.00;96148.25;5118532;27;20033;-73
2023/08/24 05:42:25;;;;;;;10.60;4.97;;;;;;;21.49;100.00;96149.69;5127664;27;20023;-71
2023/08/24 05:44:50;;;;;;;9.98;4.95;;;;;;;21.51;100.00;96145.78;5123491;27;20106;-74
2023/08/24 05:47:15;;;;;;;10.63;5.20;;;;;;;21.54;100.00;96148.06;5115556;27;20055;-74
2023/08/24 05:49:41;;;;;;;13.50;6.15;;;;;;;21.54;100.00;96149.91;5112519;27;20027;-74
2023/08/24 05:52:06;;;;;;;12.20;5.93;;;;;;;21.55;100.00;96151.53;5113835;27;20027;-73
2023/08/24 05:54:32;;;;;;;12.35;5.50;;;;;;;21.54;100.00;96150.72;5122526;27;20054;-73
2023/08/24 05:57:00;;;;;;;7.43;5.28;;;;;;;21.52;100.00;96155.47;5107196;27;20039;-74
2023/08/24 05:59:26;;;;;;;14.63;5.78;;;;;;;21.52;100.00;96151.94;5112787;27;20015;-74
2023/08/24 06:01:51;;;;;;;14.38;6.55;;;;;;;21.56;100.00;96145.19;5110452;27;20028;-73
2023/08/24 06:04:17;;;;;;;27.50;6.90;;;;;;;21.53;100.00;96145.56;5111451;27;20235;-73
2023/08/24 06:06:42;;;;;;;22.55;7.32;;;;;;;21.57;100.00;96153.00;5112372;27;20020;-73
2023/08/24 06:09:08;;;;;;;24.02;6.45;;;;;;;21.60;100.00;96143.75;5112022;27;20511;-73
2023/08/24 06:11:33;;;;;;;18.52;5.68;;;;;;;21.63;100.00;96146.03;5102492;28;20024;-74
2023/08/24 06:13:59;;;;;;;19.35;6.70;;;;;;;21.64;100.00;96141.47;5111791;27;20031;-73
2023/08/24 06:16:24;;;;;;;15.88;6.28;;;;;;;21.67;100.00;96136.59;5107737;27;20035;-73
2023/08/24 06:18:50;;;;;;;9.98;5.75;;;;;;;21.78;100.00;96142.41;5109095;27;20106;-73
2023/08/24 06:21:16;;;;;;;13.95;5.40;;;;;;;21.85;100.00;96135.19;5113671;27;20031;-73
2023/08/24 06:23:41;;;;;;;12.95;5.78;;;;;;;21.97;100.00;96130.06;5112282;27;20019;-73
2023/08/24 06:26:07;;;;;;;21.92;7.07;;;;;;;22.06;100.00;96123.47;5108602;27;20034;-74
2023/08/24 06:28:32;;;;;;;15.60;7.95;;;;;;;22.21;100.00;96128.66;5110209;28;20038;-74
2023/08/24 06:31:00;;;;;;;14.27;7.10;;;;;;;22.39;100.00;96127.22;5109200;27;20093;-73
2023/08/24 06:33:30;;;;;;;13.52;5.53;;;;;;;22.62;100.00;96129.53;5111517;27;20480;-74
2023/08/24 06:35:56;;;;;;;12.68;5.63;;;;;;;22.82;100.00;96126.00;5104408;28;20504;-74
2023/08/24 06:38:22;;;;;;;10.05;5.85;;;;;;;22.96;100.00;96132.16;5112173;28;20028;-74
2023/08/24 06:40:47;;;;;;;12.30;5.47;;;;;;;23.13;100.00;96130.69;5106605;28;20042;-74
2023/08/24 06:43:12;;;;;;;12.82;5.20;;;;;;;23.36;100.00;96125.88;5108188;28;20024;-73
2023/08/24 06:45:38;;;;;;;17.15;5.68;;;;;;;23.58;100.00;96132.59;5123202;27;20057;-74
2023/08/24 06:48:05;;;;;;;11.68;5.45;;;;;;;23.77;100.00;96121.16;5108689;28;20065;-74
2023/08/24 06:50:31;;;;;;;14.57;5.05;;;;;;;23.97;100.00;96134.47;5114784;28;20020;-74
2023/08/24 06:52:56;;;;;;;10.73;5.28;;;;;;;24.16;100.00;96125.47;5114220;28;20559;-74
2023/08/24 06:55:22;;;;;;;13.00;5.13;;;;;;;24.41;100.00;96119.28;5114391;28;20043;-63
2023/08/24 06:57:50;;;;;;;11.93;5.03;;;;;;;24.61;100.00;96127.19;5122640;28;20079;-63
2023/08/24 07:00:17;;;;;;;25.15;5.90;;;;;;;24.92;100.00;96126.53;5112414;28;20023;-63
2023/08/24 07:02:42;;;;;;;14.95;5.55;;;;;;;25.23;100.00;96122.88;5114115;28;20095;-63
2023/08/24 07:05:08;;;;;;;26.25;6.00;;;;;;;25.52;100.00;96127.75;5094537;28;20058;-63
2023/08/24 07:07:34;;;;;;;18.05;5.28;;;;;;;25.72;100.00;96124.81;5105601;28;20057;-63
2023/08/24 07:10:00;;;;;;;14.77;4.85;;;;;;;25.95;100.00;96120.56;5105124;28;20080;-63
2023/08/24 07:12:26;;;;;;;17.02;5.22;;;;;;;26.30;100.00;96104.50;5101719;28;20047;-63
2023/08/24 07:14:51;;;;;;;14.30;5.38;;;;;;;26.67;100.00;96100.75;5102179;28;20019;-63
2023/08/24 07:17:17;;;;;;;10.55;4.90;;;;;;;26.96;100.00;96092.78;5112242;28;20096;-63
2023/08/24 07:19:43;;;;;;;14.45;4.90;;;;;;;27.10;100.00;96071.75;5106547;28;20031;-63
2023/08/24 07:22:08;;;;;;;14.13;4.32;;;;;;;27.22;100.00;96079.00;5106920;28;20012;-63
2023/08/24 07:24:36;;;;;;;14.13;4.72;;;;;;;27.65;100.00;96055.28;5105644;28;20046;-63
2023/08/24 07:27:02;;;;;;;16.90;5.20;;;;;;;28.00;100.00;96059.66;5117121;28;20038;-63
2023/08/24 07:29:28;;;;;;;12.43;5.13;;;;;;;28.38;100.00;96055.44;5109183;28;20520;-64
2023/08/24 07:31:53;;;;;;;16.58;4.68;;;;;;;28.62;100.00;96051.72;5108827;28;20474;-63
2023/08/24 07:34:18;;;;;;;25.80;6.00;;;;;;;28.77;100.00;96041.13;5107300;28;20024;-64
2023/08/24 07:36:46;;;;;;;18.10;4.90;;;;;;;28.90;100.00;96045.38;5109537;28;20043;-63
2023/08/24 07:39:12;;;;;;;8.50;4.50;;;;;;;29.07;100.00;96039.94;5098978;28;20106;-63
2023/08/24 07:41:37;;;;;;;8.25;4.32;;;;;;;29.53;100.00;96036.94;5123475;28;20063;-64
2023/08/24 07:44:03;;;;;;;7.95;4.45;;;;;;;29.64;100.00;96023.50;5106405;28;20095;-64
2023/08/24 07:46:28;;;;;;;8.52;4.53;;;;;;;29.70;100.00;96026.00;5110256;28;20046;-63
2023/08/24 07:48:56;;;;;;;14.85;4.63;;;;;;;29.79;100.00;96018.22;5109322;27;20031;-63
2023/08/24 07:51:21;;;;;;;13.13;4.85;;;;;;;29.97;100.00;96011.59;5106923;27;20012;-64
2023/08/24 07:53:46;;;;;;;9.45;4.70;;;;;;;30.40;100.00;96005.44;5112524;27;20028;-63
2023/08/24 07:56:12;;;;;;;13.70;4.93;;;;;;;30.36;100.00;96005.13;5117560;27;20030;-64
2023/08/24 07:58:37;;;;;;;12.30;4.60;;;;;;;30.50;100.00;96008.19;5114702;27;20743;-64
2023/08/24 08:01:03;;;;;;;11.65;4.60;;;;;;;30.61;100.00;95995.53;5111537;27;20507;-63
2023/08/24 08:03:30;;;;;;;12.82;4.57;;;;;;;30.48;100.00;95993.25;5119323;27;20030;-64
2023/08/24 08:05:56;;;;;;;15.85;4.65;;;;;;;30.57;100.00;95991.69;5105859;27;20028;-64
2023/08/24 08:08:22;;;;;;;12.73;4.43;;;;;;;30.76;100.00;95992.06;5114747;27;20487;-64
2023/08/24 08:10:56;;;;;;;13.20;4.57;;;;;;;30.80;100.00;95985.03;5109025;27;20023;-64
2023/08/24 08:13:22;;;;;;;8.80;4.05;;;;;;;30.95;100.00;95981.56;5112039;27;20023;-64
2023/08/24 08:15:48;;;;;;;14.18;4.72;;;;;;;31.27;100.00;95977.91;5104990;27;20115;-63
2023/08/24 08:18:13;;;;;;;11.82;4.57;;;;;;;31.37;100.00;95976.28;5099274;27;20027;-64
2023/08/24 08:20:39;;;;;;;8.52;4.00;;;;;;;31.44;100.00;95974.13;5108490;27;20107;-64
2023/08/24 08:23:05;;;;;;;9.10;4.50;;;;;;;31.56;100.00;95973.88;5106548;27;20071;-64
2023/08/24 08:25:30;;;;;;;17.10;4.72;;;;;;;31.79;100.00;95974.47;5097450;27;20031;-64
2023/08/24 08:27:56;;;;;;;10.88;4.03;;;;;;;31.94;100.00;95974.47;5111692;27;20030;-64
2023/08/24 08:30:21;;;;;;;9.35;4.22;;;;;;;31.69;100.00;95976.06;5103747;27;20044;-64
2023/08/24 08:32:47;;;;;;;8.98;4.45;;;;;;;31.84;100.00;95972.59;5110344;27;20023;-63
2023/08/24 08:35:12;;;;;;;10.82;4.28;;;;;;;32.00;100.00;95970.66;5120530;27;20053;-64
2023/08/24 08:37:38;;;;;;;9.13;4.15;;;;;;;32.28;100.00;95968.44;5111867;27;20031;-64
2023/08/24 08:40:07;;;;;;;14.70;4.45;;;;;;;32.51;100.00;95968.19;5124448;27;20020;-63
2023/08/24 08:42:35;;;;;;;11.68;4.15;;;;;;;32.54;100.00;95970.34;5118555;27;20019;-63
2023/08/24 08:45:04;;;;;;;14.43;4.53;;;;;;;32.85;100.00;95965.63;5116737;27;20082;-64
2023/08/24 08:47:29;;;;;;;11.05;4.00;;;;;;;32.93;100.00;95963.44;5107985;27;20051;-64
2023/08/24 08:49:55;;;;;;;9.30;4.32;;;;;;;33.03;100.00;95960.63;5121944;27;20024;-64
2023/08/24 08:52:20;;;;;;;10.55;3.83;;;;;;;33.27;100.00;95958.06;5109466;28;20107;-64
2023/08/24 08:54:46;;;;;;;9.55;4.25;;;;;;;33.26;100.00;95959.16;5098655;28;20487;-64
2023/08/24 08:57:12;;;;;;;8.13;4.00;;;;;;;33.34;100.00;95957.75;5109915;27;20110;-64
2023/08/24 08:59:38;;;;;;;10.38;4.28;;;;;;;33.51;100.00;95962.88;5111892;27;20106;-64
2023/08/24 09:02:05;;;;;;;9.48;4.10;;;;;;;33.60;100.00;95960.34;5115980;27;20057;-64
2023/08/24 09:04:32;;;;;;;13.00;4.30;;;;;;;33.35;100.00;95953.94;5110757;27;20023;-63
2023/08/24 09:07:00;;;;;;;17.48;4.60;;;;;;;33.22;100.00;95954.56;5108412;27;20023;-63
2023/08/24 09:09:27;;;;;;;14.80;4.50;;;;;;;33.60;100.00;95945.88;5114982;27;20054;-62
2023/08/24 09:11:53;;;;;;;10.02;3.92;;;;;;;33.55;100.00;95944.03;5110460;27;20489;-63
2023/08/24 09:14:19;;;;;;;10.50;4.07;;;;;;;33.90;100.00;95942.09;5110326;27;20051;-63
2023/08/24 09:16:44;;;;;;;9.57;3.97;;;;;;;33.87;100.00;95937.22;5111475;27;20109;-63
2023/08/24 09:19:13;;;;;;;12.13;4.72;;;;;;;33.92;100.00;95939.09;5119881;27;20012;-63
2023/08/24 09:21:41;;;;;;;11.43;4.15;;;;;;;34.03;100.00;95929.72;5111615;27;20122;-63
2023/08/24 09:24:07;;;;;;;12.57;4.63;;;;;;;33.92;100.00;95931.69;5111038;27;20020;-62
2023/08/24 09:26:35;;;;;;;12.80;4.18;;;;;;;33.81;100.00;95927.44;5112394;27;20461;-63
2023/08/24 09:29:10;;;;;;;15.98;4.20;;;;;;;34.03;100.00;95927.00;5107619;27;20048;-63
2023/08/24 09:31:37;;;;;;;14.10;4.10;;;;;;;34.19;100.00;95933.16;5112453;27;20114;-63
2023/08/24 09:34:03;;;;;;;9.48;3.90;;;;;;;34.04;100.00;95914.97;5113431;27;20079;-63
2023/08/24 09:36:39;;;;;;;13.98;4.30;;;;;;;34.08;100.00;95920.69;5109661;27;20029;-63
2023/08/24 09:39:04;;;;;;;14.10;4.10;;;;;;;33.99;100.00;95924.03;5094972;28;20145;-63
2023/08/24 09:41:40;;;;;;;18.05;4.35;;;;;;;33.81;100.00;95917.31;5105741;27;20099;-66
2023/08/24 09:44:06;;;;;;;9.70;3.92;;;;;;;33.76;100.00;95913.84;5113255;27;20016;-64
2023/08/24 09:46:31;;;;;;;12.48;4.55;;;;;;;33.83;100.00;95909.69;5100047;27;20027;-63
2023/08/24 09:49:00;;;;;;;9.65;4.22;;;;;;;33.89;100.00;95913.16;5110027;27;20030;-64
2023/08/24 09:51:27;;;;;;;8.48;3.90;;;;;;;34.29;100.00;95904.91;5112207;27;20019;-63
2023/08/24 09:53:58;;;;;;;9.77;4.28;;;;;;;34.32;100.00;95904.31;5108326;27;20027;-63
2023/08/24 09:56:27;;;;;;;11.50;4.53;;;;;;;34.20;100.00;95903.91;5111051;27;20020;-64
2023/08/24 09:58:54;;;;;;;10.90;4.03;;;;;;;34.31;100.00;95894.50;5110763;27;20392;-64
2023/08/24 10:01:20;;;;;;;10.27;3.88;;;;;;;34.43;100.00;95896.84;5116415;27;20068;-62
2023/08/24 10:03:48;;;;;;;13.57;4.55;;;;;;;34.84;100.00;95893.63;5111132;27;20058;-64
2023/08/24 10:06:14;;;;;;;11.48;3.97;;;;;;;34.55;100.00;95899.19;5114273;27;20050;-64
2023/08/24 10:08:47;;;;;;;10.68;4.13;;;;;;;34.53;100.00;95888.53;5104935;27;20024;-64
2023/08/24 10:11:20;;;;;;;12.90;3.88;;;;;;;34.55;100.00;95891.78;5103788;27;20107;-64
2023/08/24 10:14:06;;;;;;;12.55;4.70;;;;;;;34.51;100.00;95885.28;5116295;27;20042;-64
2023/08/24 10:16:34;;;;;;;10.18;4.00;;;;;;;34.90;100.00;95877.16;5106570;27;20024;-63
2023/08/24 10:19:01;;;;;;;11.95;4.18;;;;;;;35.20;100.00;95884.13;5106601;27;20035;-63
2023/08/24 10:21:28;;;;;;;9.80;5.10;;;;;;;35.09;100.00;95880.75;5103347;27;20027;-64
2023/08/24 10:23:57;;;;;;;11.80;4.20;;;;;;;34.89;100.00;95865.38;5102612;28;20031;-64
2023/08/24 10:26:24;;;;;;;8.82;4.20;;;;;;;34.81;100.00;95864.13;5112506;27;20497;-64
2023/08/24 10:28:51;;;;;;;13.13;4.20;;;;;;;34.87;100.00;95864.06;5114053;27;20058;-64
2023/08/24 10:31:17;;;;;;;11.40;4.22;;;;;;;35.08;100.00;95854.50;5104973;28;20586;-65
2023/08/24 10:33:45;;;;;;;11.63;4.10;;;;;;;35.24;100.00;95852.34;5092890;28;20011;-64
2023/08/24 10:36:13;;;;;;;9.23;3.95;;;;;;;35.43;100.00;95848.75;5107572;27;20020;-66
2023/08/24 10:38:42;;;;;;;11.40;3.83;;;;;;;35.82;100.00;95838.56;5119996;27;20203;-64
2023/08/24 10:41:07;;;;;;;10.77;3.70;;;;;;;36.26;100.00;95839.16;5110419;28;20020;-64
2023/08/24 10:43:40;;;;;;;10.98;3.20;;;;;;;36.34;100.00;95843.06;5111544;28;20076;-65
2023/08/24 10:46:13;;;;;;;11.88;3.85;;;;;;;36.38;100.00;95841.38;5112691;27;20027;-65
2023/08/24 10:48:42;;;;;;;12.20;3.67;;;;;;;36.76;100.00;95843.88;5112582;27;20493;-65
2023/08/24 10:51:17;;;;;;;12.23;4.40;;;;;;;37.10;100.00;95831.63;5115674;28;20062;-64
2023/08/24 10:54:02;;;;;;;8.65;4.00;;;;;;;36.91;100.00;95829.00;5108926;28;20039;-65
2023/08/24 10:56:36;;;;;;;11.82;3.95;;;;;;;37.38;100.00;95828.78;5107044;28;20012;-66
2023/08/24 10:59:10;;;;;;;;;;;;;;;37.38;100.00;95820.53;5103833;28;20409;-64
2023/08/24 11:01:39;;;;;;;11.25;4.03;;;;;;;37.34;100.00;95824.22;5113581;28;20324;-65
2023/08/24 11:04:06;;;;;;;8.07;4.28;;;;;;;37.57;100.00;95819.56;5113291;28;20176;-65
2023/08/24 11:06:32;;;;;;;10.27;3.90;;;;;;;37.71;100.00;95824.16;5117198;28;20024;-66
2023/08/24 11:09:15;;;;;;;9.43;3.40;;;;;;;37.80;100.00;95814.03;5113231;28;20044;-65
2023/08/24 11:11:41;;;;;;;15.32;6.03;;;;;;;37.65;100.00;95818.78;5103857;28;20024;-65
2023/08/24 11:14:25;;;;;;;9.32;4.97;;;;;;;38.19;100.00;95809.72;5110089;28;20019;-65
2023/08/24 11:16:50;;;;;;;;;;;;;;;38.10;100.00;95812.44;5108336;28;20027;-65
2023/08/24 11:19:16;;;;;;;16.10;4.10;;;;;;;38.24;100.00;95812.31;5109006;28;19994;-65
2023/08/24 11:21:43;;;;;;;12.48;4.45;;;;;;;38.48;100.00;95800.09;5120316;27;20027;-65